Kezdőlap
METAR-TAF:

METAR-TAF

Repülőterek :

Taiyuan, Kína

földrajzi szélesség: 37-47N, földrajzi hosszúság: 112-33E, magasság: 779 m

Jelenlegi meteorológiai megfigyelések

A jelentés 23 perccel ezelõtt készült, 17:30 UTC
Különbözõ irányokból fújó szél 2 kt
Hőmérséklet 24°C
Páratartalom 74%
Légköri nyomás 1010 hPa
Látótávolság: 5000 m
Párásság

METAR: ZBYN 071730Z VRB01MPS 5000 BR NSC 24/19 Q1010 NOSIG

Idő: 01:53 (17:53 UTC)

Előrejelzés

A jelentés 2 órával és 49 perccel ezelõtt készült, 15:04 UTC
Az előrejelzés 07-én 18 óra UTC és 08-én 18 óra UTC között érvényes
Keleti szél 8 kt
Látótávolság: 5000 m
Párásság
08-én 06 óra UTC és 08-én 12 óra UTC között ideiglenes
Kevés felhő 3000 lábon, Cumulonimbus.
Szórványos felhőzet 4000 lábon
zivatar, esõ

TAF: ZBYN 071504Z 0718/0818 09004MPS 5000 BR NSC TX32/0807Z TN20/0721Z TEMPO 0806/0812 TSRA FEW030CB SCT040

Meteorológiai megfigyelések és előrejelzések több, mint 4000 repülőtéren (METAR és TAF jelentéseket).

A térképen piros és sárga pontok jelzik az elérhető meteorológiai állomásokat.

Mozgassa az egeret a pont fölött, hogy megjelenjen az állomás neve.

Azután kattintson az időjárási megfigyelések és előrejelzések megtekintéséhez.

A térkép megváltoztatása: kattintson a fekete keresztel jelölt zöld gombra ráközelítéshez, a vonallal jelölt zöld gombra távolításhoz, vagy a zöld nyilakra a szomszédos térképek eléréséhez.


METAR-TAF: